createdAt,value
2019-05-22T00:00:29.116Z,24.97
2019-05-22T00:03:05.323Z,28.00
2019-05-22T00:05:34.762Z,29.17
2019-05-22T00:08:09.211Z,27.97
2019-05-22T00:10:39.412Z,32.57
2019-05-22T00:13:13.208Z,30.63
2019-05-22T00:15:41.879Z,33.20
2019-05-22T00:18:12.063Z,30.33
2019-05-22T00:20:41.930Z,27.23
2019-05-22T00:23:14.814Z,29.93
2019-05-22T00:25:44.919Z,34.37
2019-05-22T00:28:14.654Z,33.67
2019-05-22T00:30:45.323Z,34.00
2019-05-22T00:33:14.838Z,33.47
2019-05-22T00:35:44.831Z,31.57
2019-05-22T00:38:15.092Z,31.50
2019-05-22T00:40:45.179Z,32.33
2019-05-22T00:43:17.104Z,33.27
2019-05-22T00:45:48.818Z,35.80
2019-05-22T00:48:20.113Z,30.87
2019-05-22T00:51:04.962Z,37.50
2019-05-22T00:53:51.718Z,32.20
2019-05-22T00:56:38.907Z,43.53
2019-05-22T00:59:26.519Z,42.43
2019-05-22T01:01:59.352Z,41.00
2019-05-22T01:04:43.403Z,45.50
2019-05-22T01:07:20.479Z,47.77
2019-05-22T01:09:51.464Z,47.83
2019-05-22T01:12:29.649Z,52.87
2019-05-22T01:15:01.193Z,53.73
2019-05-22T01:17:33.200Z,45.50
2019-05-22T01:20:03.093Z,47.80
2019-05-22T01:22:33.963Z,52.60
2019-05-22T01:25:04.587Z,58.43
2019-05-22T01:27:35.309Z,53.50
2019-05-22T01:30:07.330Z,55.70
2019-05-22T01:32:53.671Z,48.97
2019-05-22T01:35:23.842Z,49.93
2019-05-22T01:37:53.047Z,48.17
2019-05-22T01:40:44.348Z,48.20
2019-05-22T01:43:18.412Z,48.77
2019-05-22T01:45:55.232Z,53.67
2019-05-22T01:48:27.381Z,48.10
2019-05-22T01:50:57.761Z,46.60
2019-05-22T01:53:30.365Z,56.93
2019-05-22T01:55:59.486Z,51.53
2019-05-22T01:58:30.578Z,50.03
2019-05-22T02:01:00.648Z,47.23
2019-05-22T02:03:30.496Z,41.83
2019-05-22T02:05:58.692Z,42.30
2019-05-22T02:08:28.136Z,40.90
2019-05-22T02:10:57.996Z,36.27
2019-05-22T02:13:28.304Z,30.10
2019-05-22T02:15:56.839Z,33.83
2019-05-22T02:18:27.403Z,31.87
2019-05-22T02:20:56.693Z,26.57
2019-05-22T02:23:25.299Z,35.73
2019-05-22T02:25:53.896Z,29.27
2019-05-22T02:28:22.811Z,26.63
2019-05-22T02:30:51.846Z,26.37
2019-05-22T02:33:22.155Z,27.43
2019-05-22T02:35:51.335Z,28.03
2019-05-22T02:38:22.303Z,25.73
2019-05-22T02:40:54.400Z,29.00
2019-05-22T02:43:24.603Z,27.13
2019-05-22T02:45:53.894Z,27.90
2019-05-22T02:48:22.192Z,23.70
2019-05-22T02:50:52.261Z,24.80
2019-05-22T02:53:21.842Z,22.07
2019-05-22T02:55:50.888Z,22.70
2019-05-22T02:58:20.169Z,21.60
2019-05-22T03:00:51.785Z,27.47
2019-05-22T03:03:20.568Z,24.17
2019-05-22T03:05:50.148Z,27.17
2019-05-22T03:08:19.722Z,23.87
2019-05-22T03:10:50.169Z,25.27
2019-05-22T03:13:23.357Z,26.27
2019-05-22T03:15:54.833Z,29.13
2019-05-22T03:18:23.445Z,26.27
2019-05-22T03:20:52.561Z,24.17
2019-05-22T03:23:33.397Z,28.80
2019-05-22T03:26:02.338Z,28.93
2019-05-22T03:28:31.842Z,27.47
2019-05-22T03:31:00.279Z,28.67
2019-05-22T03:33:29.860Z,26.30
2019-05-22T03:36:14.971Z,26.43
2019-05-22T03:38:44.075Z,27.83
2019-05-22T03:41:13.396Z,27.70
2019-05-22T03:43:45.054Z,28.73
2019-05-22T03:46:31.755Z,29.73
2019-05-22T03:49:00.952Z,26.90
2019-05-22T03:51:36.207Z,27.93
2019-05-22T03:54:05.553Z,27.00
2019-05-22T03:56:37.120Z,26.73
2019-05-22T03:59:06.324Z,29.23
2019-05-22T04:01:36.118Z,26.67
2019-05-22T04:04:07.368Z,28.90
2019-05-22T04:06:37.015Z,28.23
2019-05-22T04:09:17.387Z,27.37
2019-05-22T04:11:46.625Z,25.37
2019-05-22T04:14:16.377Z,26.13
2019-05-22T04:16:44.745Z,29.90
2019-05-22T04:19:14.546Z,30.43
2019-05-22T04:21:44.888Z,25.43
2019-05-22T04:24:13.584Z,25.33
2019-05-22T04:26:42.383Z,24.70
2019-05-22T04:29:10.654Z,32.63
2019-05-22T04:31:52.347Z,33.50
2019-05-22T04:34:21.749Z,30.87
2019-05-22T04:36:50.836Z,28.47
2019-05-22T04:39:25.657Z,26.53
2019-05-22T04:41:57.209Z,31.47
2019-05-22T04:44:26.348Z,24.90
2019-05-22T04:46:55.604Z,29.73
2019-05-22T04:49:24.658Z,28.07
2019-05-22T04:51:53.189Z,27.80
2019-05-22T04:54:21.355Z,29.37
2019-05-22T04:56:51.587Z,26.37
2019-05-22T04:59:20.415Z,30.90
2019-05-22T05:01:50.028Z,27.97
2019-05-22T05:04:18.728Z,29.37
2019-05-22T05:06:47.031Z,27.87
2019-05-22T05:09:16.100Z,30.60
2019-05-22T05:11:45.116Z,29.20
2019-05-22T05:14:13.793Z,24.60
2019-05-22T05:16:41.985Z,27.77
2019-05-22T05:19:10.499Z,23.97
2019-05-22T05:21:38.958Z,24.93
2019-05-22T05:24:07.721Z,22.20
2019-05-22T05:26:38.056Z,22.70
2019-05-22T05:29:08.872Z,23.03
2019-05-22T05:31:37.038Z,27.90
2019-05-22T05:34:14.326Z,22.47
2019-05-22T05:36:44.699Z,22.77
2019-05-22T05:39:36.916Z,22.77
2019-05-22T05:42:05.506Z,25.67
2019-05-22T05:44:35.162Z,22.80
2019-05-22T05:47:03.915Z,20.50
2019-05-22T05:49:32.487Z,21.10
2019-05-22T05:52:01.144Z,20.77
2019-05-22T05:54:30.443Z,18.67
2019-05-22T05:57:14.862Z,19.30
2019-05-22T05:59:42.961Z,18.30
2019-05-22T06:02:12.732Z,19.33
2019-05-22T06:04:41.407Z,21.20
2019-05-22T06:07:19.256Z,18.73
2019-05-22T06:09:49.894Z,17.60
2019-05-22T06:12:18.751Z,18.20
2019-05-22T06:14:48.060Z,15.00
2019-05-22T06:17:25.439Z,17.40
2019-05-22T06:20:05.900Z,18.50
2019-05-22T06:22:34.355Z,17.07
2019-05-22T06:25:06.424Z,17.23
2019-05-22T06:27:43.404Z,14.60
2019-05-22T06:30:17.715Z,13.77
2019-05-22T06:33:09.002Z,13.13
2019-05-22T06:35:38.561Z,12.00
2019-05-22T06:38:25.697Z,13.60
2019-05-22T06:40:54.265Z,11.60
2019-05-22T06:43:24.582Z,13.20
2019-05-22T06:45:53.771Z,13.40
2019-05-22T06:48:21.866Z,14.57
2019-05-22T06:50:50.185Z,12.93
2019-05-22T06:53:19.520Z,12.63
2019-05-22T06:55:48.371Z,12.03
2019-05-22T06:58:16.629Z,13.77
2019-05-22T07:00:45.621Z,13.07
2019-05-22T07:03:13.791Z,12.63
2019-05-22T07:05:42.857Z,12.10
2019-05-22T07:08:11.240Z,15.27
2019-05-22T07:10:41.424Z,13.17
2019-05-22T07:13:11.075Z,11.60
2019-05-22T07:15:44.092Z,11.83
2019-05-22T07:18:15.304Z,10.10
2019-05-22T07:20:44.590Z,12.37
2019-05-22T07:23:15.242Z,13.13
2019-05-22T07:25:44.788Z,13.90
2019-05-22T07:28:15.546Z,12.20
2019-05-22T07:30:44.408Z,13.30
2019-05-22T07:33:13.487Z,11.07
2019-05-22T07:35:56.747Z,11.80
2019-05-22T07:38:14.038Z,9.70
2019-05-22T07:40:43.042Z,9.13
2019-05-22T07:43:11.859Z,9.87
2019-05-22T07:45:40.835Z,11.00
2019-05-22T07:48:11.072Z,9.33
2019-05-22T07:50:42.310Z,10.77
2019-05-22T07:53:11.671Z,11.93
2019-05-22T07:55:41.168Z,11.57
2019-05-22T07:58:14.752Z,11.93
2019-05-22T08:00:47.744Z,9.00
2019-05-22T08:03:16.931Z,10.13
2019-05-22T08:05:48.672Z,11.23
2019-05-22T08:08:18.829Z,9.50
2019-05-22T08:10:47.637Z,9.33
2019-05-22T08:13:16.047Z,10.00
2019-05-22T08:15:47.687Z,11.13
2019-05-22T08:18:17.247Z,9.90
2019-05-22T08:20:45.937Z,9.60
2019-05-22T08:23:15.384Z,9.67
2019-05-22T08:25:43.476Z,9.13
2019-05-22T08:28:12.298Z,11.00
2019-05-22T08:30:41.387Z,11.63
2019-05-22T08:33:11.819Z,10.73
2019-05-22T08:35:40.935Z,14.80
2019-05-22T08:38:11.486Z,14.10
2019-05-22T08:40:41.084Z,16.30
2019-05-22T08:43:10.184Z,13.03
2019-05-22T08:45:38.758Z,16.37
2019-05-22T08:48:07.419Z,12.40
2019-05-22T08:50:37.364Z,11.47
2019-05-22T08:53:07.036Z,12.20
2019-05-22T08:55:36.085Z,14.83
2019-05-22T08:58:05.852Z,10.77
2019-05-22T09:00:35.165Z,10.30
2019-05-22T09:03:05.227Z,13.47
2019-05-22T09:05:33.929Z,11.53
2019-05-22T09:08:03.112Z,14.47
2019-05-22T09:10:33.350Z,12.43
2019-05-22T09:13:02.096Z,14.83
2019-05-22T09:15:32.331Z,11.87
2019-05-22T09:18:05.082Z,14.67
2019-05-22T09:20:47.979Z,14.40
2019-05-22T09:23:05.211Z,13.70
2019-05-22T09:25:35.825Z,13.47
2019-05-22T09:28:04.268Z,11.97
2019-05-22T09:30:33.484Z,13.20
2019-05-22T09:33:03.284Z,14.17
2019-05-22T09:35:31.523Z,10.63
2019-05-22T09:38:00.123Z,12.93
2019-05-22T09:40:30.205Z,12.70
2019-05-22T09:42:58.966Z,10.27
2019-05-22T09:45:27.607Z,10.53
2019-05-22T09:47:57.289Z,10.17
2019-05-22T09:50:26.281Z,11.37
2019-05-22T09:52:57.987Z,12.43
2019-05-22T09:55:25.425Z,9.80
2019-05-22T09:57:54.437Z,13.23
2019-05-22T10:00:23.644Z,10.97
2019-05-22T10:02:51.944Z,12.37
2019-05-22T10:05:21.014Z,10.73
2019-05-22T10:08:00.270Z,10.93
2019-05-22T10:10:20.561Z,12.13
2019-05-22T10:12:49.017Z,11.43
2019-05-22T10:15:17.704Z,10.53
2019-05-22T10:17:47.597Z,13.30
2019-05-22T10:20:16.172Z,12.10
2019-05-22T10:22:44.348Z,11.63
2019-05-22T10:25:16.232Z,13.40
2019-05-22T10:27:43.723Z,11.63
2019-05-22T10:30:13.605Z,12.40
2019-05-22T10:32:42.201Z,12.27
2019-05-22T10:35:13.459Z,11.87
2019-05-22T10:37:42.791Z,14.17
2019-05-22T10:40:13.742Z,14.07
2019-05-22T10:42:44.872Z,15.23
2019-05-22T10:45:13.909Z,14.53
2019-05-22T10:47:43.752Z,15.33
2019-05-22T10:50:13.845Z,15.97
2019-05-22T10:52:41.966Z,14.33
2019-05-22T10:55:12.315Z,11.57
2019-05-22T10:57:42.395Z,13.93
2019-05-22T11:00:20.048Z,16.60
2019-05-22T11:02:48.991Z,15.47
2019-05-22T11:05:19.145Z,15.27
2019-05-22T11:07:48.386Z,13.53
2019-05-22T11:10:18.061Z,14.83
2019-05-22T11:12:46.407Z,12.77
2019-05-22T11:15:15.370Z,13.70
2019-05-22T11:17:44.748Z,13.70
2019-05-22T11:20:13.968Z,14.77
2019-05-22T11:22:42.683Z,12.80
2019-05-22T11:25:12.947Z,12.97
2019-05-22T11:27:41.740Z,14.17
2019-05-22T11:30:15.501Z,14.03
2019-05-22T11:32:43.850Z,12.13
2019-05-22T11:35:14.041Z,14.97
2019-05-22T11:37:42.613Z,11.70
2019-05-22T11:40:11.692Z,11.47
2019-05-22T11:42:40.353Z,12.20
2019-05-22T11:45:12.158Z,13.27
2019-05-22T11:47:40.914Z,13.93
2019-05-22T11:50:15.053Z,12.63
2019-05-22T11:52:44.243Z,13.80
2019-05-22T11:55:13.629Z,13.47
2019-05-22T11:57:43.880Z,14.17
2019-05-22T12:00:13.611Z,16.00
2019-05-22T12:02:43.577Z,14.93
2019-05-22T12:05:12.588Z,15.77
2019-05-22T12:07:41.853Z,14.23
2019-05-22T12:10:11.571Z,15.13
2019-05-22T12:12:41.456Z,13.30
2019-05-22T12:15:12.035Z,15.37
2019-05-22T12:17:41.627Z,14.07
2019-05-22T12:20:12.064Z,14.07
2019-05-22T12:22:41.280Z,13.80
2019-05-22T12:25:11.856Z,14.47
2019-05-22T12:27:40.464Z,14.17
2019-05-22T12:30:10.460Z,14.40
2019-05-22T12:32:40.732Z,16.60
2019-05-22T12:35:11.471Z,14.23
2019-05-22T12:37:41.981Z,15.03
2019-05-22T12:40:14.207Z,12.43
2019-05-22T12:42:44.387Z,14.43
2019-05-22T12:45:14.333Z,12.83
2019-05-22T12:47:43.224Z,13.10
2019-05-22T12:50:14.915Z,13.43
2019-05-22T12:52:46.622Z,13.70
2019-05-22T12:55:15.396Z,12.90
2019-05-22T12:57:43.523Z,14.13
2019-05-22T13:00:12.198Z,16.27
2019-05-22T13:02:42.764Z,14.83
2019-05-22T13:05:14.485Z,11.93
2019-05-22T13:07:42.164Z,15.00
2019-05-22T13:10:10.758Z,12.87
2019-05-22T13:12:39.402Z,12.83
2019-05-22T13:15:10.867Z,12.03
2019-05-22T13:17:40.959Z,13.67
2019-05-22T13:20:15.575Z,11.73
2019-05-22T13:22:47.890Z,12.17
2019-05-22T13:25:17.379Z,12.03
2019-05-22T13:27:45.994Z,13.17
2019-05-22T13:30:17.124Z,15.00
2019-05-22T13:32:46.450Z,11.97
2019-05-22T13:35:18.494Z,12.93
2019-05-22T13:37:47.911Z,10.97
2019-05-22T13:40:27.538Z,11.70
2019-05-22T13:42:49.237Z,14.03
2019-05-22T13:45:29.179Z,12.10
2019-05-22T13:47:49.268Z,12.27
2019-05-22T13:50:18.658Z,12.43
2019-05-22T13:52:49.258Z,13.50
2019-05-22T13:55:18.680Z,12.97
2019-05-22T13:57:48.764Z,13.63
2019-05-22T14:00:20.263Z,15.10
2019-05-22T14:02:49.658Z,14.70
2019-05-22T14:05:18.380Z,15.70
2019-05-22T14:07:46.633Z,11.83
2019-05-22T14:10:16.927Z,11.20
2019-05-22T14:12:45.511Z,11.57
2019-05-22T14:15:15.221Z,13.97
2019-05-22T14:17:43.779Z,11.40
2019-05-22T14:20:14.197Z,13.97
2019-05-22T14:22:42.783Z,13.30
2019-05-22T14:25:11.751Z,11.33
2019-05-22T14:27:41.774Z,10.97
2019-05-22T14:30:13.167Z,10.50
2019-05-22T14:32:41.988Z,11.37
2019-05-22T14:35:11.003Z,10.90
2019-05-22T14:37:39.411Z,10.37
2019-05-22T14:40:08.396Z,11.70
2019-05-22T14:42:37.767Z,11.73
2019-05-22T14:45:06.916Z,10.10
2019-05-22T14:47:35.055Z,11.07
2019-05-22T14:50:04.851Z,9.03
2019-05-22T14:52:33.392Z,8.80
2019-05-22T14:55:02.819Z,9.40
2019-05-22T14:57:32.459Z,8.90
2019-05-22T15:00:00.555Z,10.40
2019-05-22T15:02:30.047Z,10.33
2019-05-22T15:04:58.751Z,10.70
2019-05-22T15:07:26.882Z,9.73
2019-05-22T15:09:55.317Z,8.90
2019-05-22T15:12:23.424Z,9.17
2019-05-22T15:14:51.927Z,8.10
2019-05-22T15:17:32.454Z,10.90
2019-05-22T15:19:52.096Z,9.63
2019-05-22T15:22:21.141Z,10.33
2019-05-22T15:24:49.613Z,9.87
2019-05-22T15:27:17.832Z,9.60
2019-05-22T15:29:46.419Z,9.87
2019-05-22T15:32:15.209Z,8.80
2019-05-22T15:34:43.412Z,10.03
2019-05-22T15:37:13.511Z,9.47
2019-05-22T15:39:43.021Z,8.13
2019-05-22T15:42:12.903Z,7.53
2019-05-22T15:44:42.552Z,8.37
2019-05-22T15:47:11.305Z,9.30
2019-05-22T15:49:43.090Z,12.13
2019-05-22T15:52:15.223Z,8.97
2019-05-22T15:54:43.993Z,9.50
2019-05-22T15:57:12.796Z,9.50
2019-05-22T15:59:41.975Z,9.13
2019-05-22T16:02:10.949Z,8.57
2019-05-22T16:04:41.096Z,8.93
2019-05-22T16:07:10.825Z,9.33
2019-05-22T16:09:40.748Z,7.97
2019-05-22T16:12:09.228Z,9.40
2019-05-22T16:14:38.903Z,11.30
2019-05-22T16:17:09.867Z,9.70
2019-05-22T16:19:39.277Z,8.53
2019-05-22T16:22:09.352Z,9.27
2019-05-22T16:24:38.989Z,10.97
2019-05-22T16:27:08.372Z,10.27
2019-05-22T16:29:38.165Z,10.43
2019-05-22T16:32:07.824Z,9.40
2019-05-22T16:34:37.725Z,9.57
2019-05-22T16:37:06.147Z,8.77
2019-05-22T16:39:37.076Z,9.23
2019-05-22T16:42:06.171Z,9.10
2019-05-22T16:44:35.479Z,9.43
2019-05-22T16:47:06.780Z,8.97
2019-05-22T16:49:36.085Z,9.80
2019-05-22T16:52:06.908Z,8.57
2019-05-22T16:54:35.171Z,12.03
2019-05-22T16:57:03.730Z,11.50
2019-05-22T16:59:36.684Z,11.10
2019-05-22T17:02:04.499Z,11.03
2019-05-22T17:04:33.208Z,10.20
2019-05-22T17:07:01.456Z,8.40
2019-05-22T17:09:30.724Z,9.67
2019-05-22T17:11:59.227Z,9.53
2019-05-22T17:14:29.624Z,7.60
2019-05-22T17:16:59.006Z,11.93
2019-05-22T17:19:28.149Z,10.47
2019-05-22T17:21:57.140Z,10.77
2019-05-22T17:24:27.247Z,11.47
2019-05-22T17:26:56.320Z,11.93
2019-05-22T17:29:25.374Z,8.63
2019-05-22T17:31:54.569Z,9.20
2019-05-22T17:34:33.794Z,9.83
2019-05-22T17:37:11.519Z,11.47
2019-05-22T17:39:42.272Z,9.50
2019-05-22T17:42:13.511Z,10.10
2019-05-22T17:44:45.468Z,9.53
2019-05-22T17:47:14.581Z,16.53
2019-05-22T17:49:43.846Z,42.70
2019-05-22T17:52:14.642Z,21.60
2019-05-22T17:54:43.526Z,14.63
2019-05-22T17:57:13.286Z,14.67
2019-05-22T17:59:41.759Z,8.80
2019-05-22T18:02:11.569Z,9.57
2019-05-22T18:04:39.671Z,13.87
2019-05-22T18:07:09.816Z,11.03
2019-05-22T18:09:38.683Z,9.53
2019-05-22T18:12:07.579Z,10.97
2019-05-22T18:14:36.883Z,8.93
2019-05-22T18:17:06.539Z,8.57
2019-05-22T18:19:35.763Z,10.20
2019-05-22T18:22:06.337Z,9.90
2019-05-22T18:24:34.773Z,9.53
2019-05-22T18:27:03.301Z,9.13
2019-05-22T18:29:31.759Z,9.27
2019-05-22T18:32:01.119Z,9.80
2019-05-22T18:34:29.284Z,9.90
2019-05-22T18:36:57.743Z,11.30
2019-05-22T18:39:27.359Z,9.40
2019-05-22T18:41:55.879Z,10.17
2019-05-22T18:44:23.988Z,9.80
2019-05-22T18:46:52.784Z,9.53
2019-05-22T18:49:20.953Z,9.83
2019-05-22T18:51:49.493Z,15.37
2019-05-22T18:54:19.132Z,12.00
2019-05-22T18:56:47.857Z,13.33
2019-05-22T18:59:16.346Z,10.40
2019-05-22T19:01:45.128Z,11.67
2019-05-22T19:04:13.219Z,9.70
2019-05-22T19:06:42.442Z,10.03
2019-05-22T19:09:10.532Z,8.63
2019-05-22T19:11:39.247Z,8.97
2019-05-22T19:14:08.396Z,8.90
2019-05-22T19:16:37.157Z,10.70
2019-05-22T19:19:05.823Z,9.00
2019-05-22T19:21:34.009Z,10.10
2019-05-22T19:24:03.057Z,10.10
2019-05-22T19:26:31.728Z,10.30
2019-05-22T19:29:00.623Z,9.50
2019-05-22T19:31:28.979Z,9.20
2019-05-22T19:33:57.164Z,11.20
2019-05-22T19:36:26.080Z,9.87
2019-05-22T19:38:54.334Z,10.37
2019-05-22T19:41:24.085Z,12.43
2019-05-22T19:43:52.219Z,10.87
2019-05-22T19:46:20.898Z,11.57
2019-05-22T19:48:49.582Z,10.40
2019-05-22T19:51:18.082Z,13.03
2019-05-22T19:53:47.803Z,12.63
2019-05-22T19:56:16.979Z,11.97
2019-05-22T19:58:45.752Z,12.07
2019-05-22T20:01:14.375Z,13.50
2019-05-22T20:03:43.038Z,12.87
2019-05-22T20:06:11.887Z,15.30
2019-05-22T20:08:40.701Z,12.47
2019-05-22T20:11:09.641Z,14.30
2019-05-22T20:13:38.562Z,13.70
2019-05-22T20:16:06.662Z,15.23
2019-05-22T20:18:35.716Z,14.00
2019-05-22T20:21:04.392Z,13.93
2019-05-22T20:23:36.481Z,14.87
2019-05-22T20:26:03.756Z,15.60
2019-05-22T20:28:32.602Z,13.63
2019-05-22T20:31:00.742Z,15.47
2019-05-22T20:33:28.901Z,12.87
2019-05-22T20:35:57.097Z,16.67
2019-05-22T20:38:26.352Z,13.50
2019-05-22T20:40:55.174Z,12.93
2019-05-22T20:43:23.548Z,16.63
2019-05-22T20:45:53.529Z,14.50
2019-05-22T20:48:23.748Z,16.13
2019-05-22T20:50:53.354Z,13.53
2019-05-22T20:53:21.828Z,15.57
2019-05-22T20:55:50.360Z,13.77
2019-05-22T20:58:20.876Z,14.27
2019-05-22T21:00:51.443Z,15.17
2019-05-22T21:03:20.240Z,16.00
2019-05-22T21:05:51.148Z,13.80
2019-05-22T21:08:22.332Z,13.10
2019-05-22T21:10:52.253Z,14.07
2019-05-22T21:13:20.689Z,13.27
2019-05-22T21:15:51.167Z,14.63
2019-05-22T21:18:21.461Z,13.57
2019-05-22T21:20:55.100Z,14.37
2019-05-22T21:23:22.065Z,13.87
2019-05-22T21:25:51.404Z,13.87
2019-05-22T21:28:20.094Z,14.27
2019-05-22T21:30:49.284Z,16.50
2019-05-22T21:33:17.956Z,19.33
2019-05-22T21:35:46.961Z,14.57
2019-05-22T21:38:15.912Z,15.10
2019-05-22T21:40:44.513Z,15.03
2019-05-22T21:43:15.286Z,17.20
2019-05-22T21:45:43.530Z,14.10
2019-05-22T21:48:11.836Z,13.90
2019-05-22T21:50:41.041Z,16.53
2019-05-22T21:53:14.100Z,14.40
2019-05-22T21:55:45.508Z,13.77
2019-05-22T21:58:13.533Z,14.20
2019-05-22T22:00:49.721Z,14.47
2019-05-22T22:03:22.055Z,15.30
2019-05-22T22:05:50.509Z,13.80
2019-05-22T22:08:18.827Z,16.00
2019-05-22T22:10:47.895Z,14.93
2019-05-22T22:13:17.371Z,16.13
2019-05-22T22:15:46.249Z,16.43
2019-05-22T22:18:15.376Z,15.23
2019-05-22T22:20:44.356Z,14.50
2019-05-22T22:23:15.304Z,14.87
2019-05-22T22:25:44.244Z,15.80
2019-05-22T22:28:15.373Z,17.33
2019-05-22T22:30:52.048Z,15.70
2019-05-22T22:33:23.728Z,16.57
2019-05-22T22:35:53.771Z,13.77
2019-05-22T22:38:30.590Z,14.30
2019-05-22T22:40:59.842Z,14.33
2019-05-22T22:43:32.392Z,21.97
2019-05-22T22:46:19.577Z,21.57
2019-05-22T22:48:51.690Z,16.77
2019-05-22T22:51:22.151Z,18.30
2019-05-22T22:53:51.067Z,15.07
2019-05-22T22:56:20.670Z,14.67
2019-05-22T22:58:49.295Z,14.77
2019-05-22T23:01:21.183Z,14.57
2019-05-22T23:03:51.856Z,15.17
2019-05-22T23:06:19.968Z,16.73
2019-05-22T23:08:49.121Z,15.07
2019-05-22T23:11:19.291Z,14.53
2019-05-22T23:13:48.079Z,14.77
2019-05-22T23:16:19.086Z,14.30
2019-05-22T23:18:58.899Z,15.37
2019-05-22T23:21:26.875Z,15.03
2019-05-22T23:23:55.256Z,15.47
2019-05-22T23:26:23.755Z,14.73
2019-05-22T23:28:52.960Z,14.73
2019-05-22T23:31:22.567Z,14.83
2019-05-22T23:33:52.117Z,18.07
2019-05-22T23:36:20.253Z,14.20
2019-05-22T23:38:49.638Z,16.57
2019-05-22T23:41:19.120Z,15.07
2019-05-22T23:43:48.697Z,15.60
2019-05-22T23:46:16.890Z,14.63
2019-05-22T23:48:45.866Z,15.33
2019-05-22T23:51:14.411Z,14.60
2019-05-22T23:53:44.162Z,17.17
2019-05-22T23:56:14.167Z,16.40
2019-05-22T23:58:52.157Z,16.77
